EmailTwitter


Observations de surface / France / LFBP (07610)

Régions: Québec | Canada | États-Unis | Europe | France | UK | Ailleurs
Station
Affichage
Infos & localisation pour LFBP (07610) | Aide pour décoder les METARs

Observations prises le 2020-04-05 à 13H00 UTC à PONT-LONG-UZEIN/, FR (LFBP)

Température: 22.0 Celsius

Point de rosée: 7.0 Celsius

Humidité relative: 38%

Vents: Nord-nord-est à 9 km/h ou 5 noeuds.

Pression au niveau moyen de la mer: 101.40 kilopascals.

Observation METAR:

LFBP 051300Z AUTO 02005KT 350V070 CAVOK 22/07 Q1014 NOSIG=